Date,TemperatureHighF,TemperatureAvgF,TemperatureLowF,DewpointHighF,DewpointAvgF,DewpointLowF,HumidityHigh,HumidityAvg,HumidityLow,PressureMaxIn,PressureMinIn,WindSpeedMaxMPH,WindSpeedAvgMPH,GustSpeedMaxMPH,PrecipitationSumIn
2013-11-1,44.6,40.6,37.5,43.3,38.9,35.8,100,93,89,29.79,29.24,6,0,9,0.00
2013-11-2,38.1,35.5,30.9,36.0,33.7,29.4,100,93,89,30.20,29.79,5,0,5,0.01
2013-11-3,42.1,35.7,29.0,36.6,32.6,27.5,95,89,75,30.32,30.20,5,0,11,0.00
2013-11-4,46.3,41.9,38.5,42.0,38.4,35.3,95,87,75,30.21,29.99,7,1,14,0.06
2013-11-5,44.9,37.5,30.4,38.2,34.2,28.9,95,88,70,30.31,30.00,6,0,8,0.17
2013-11-6,33.9,31.6,26.9,32.1,28.8,21.3,94,89,79,30.16,29.90,5,0,12,0.12
2013-11-7,34.6,27.1,19.7,26.4,22.5,17.2,91,83,66,30.26,30.16,12,0,14,0.03
2013-11-8,36.4,30.0,22.0,31.7,26.1,19.5,94,86,71,30.29,29.80,9,0,14,0.01
2013-11-9,36.7,34.9,33.0,35.4,32.4,29.9,95,91,84,30.04,29.67,13,2,21,0.26
2013-11-10,37.4,34.8,32.9,31.3,29.2,27.4,91,80,68,30.31,30.04,10,1,17,0.04
2013-11-11,32.9,24.4,20.6,30.6,17.7,12.3,91,76,62,30.64,30.08,11,2,15,0.00
2013-11-12,24.9,18.8,12.1,15.8,10.9,8.7,87,72,50,30.75,30.53,12,1,12,0.00
2013-11-13,42.7,28.9,15.7,30.5,21.6,10.2,83,74,60,30.53,29.95,11,1,23,0.02
2013-11-14,37.4,32.3,28.7,30.6,27.7,25.3,93,83,73,29.95,29.84,4,0,6,0.00
2013-11-15,46.5,34.9,26.7,39.0,31.6,25.0,94,88,73,29.94,29.85,11,0,11,0.00
2013-11-16,50.6,41.4,35.7,49.5,38.8,31.7,96,91,83,29.85,29.37,6,0,7,0.38
2013-11-17,48.5,40.5,33.1,47.1,38.4,30.2,100,92,84,29.55,29.24,14,1,23,0.00
2013-11-18,33.1,27.6,23.8,30.1,21.5,17.5,90,78,71,30.30,29.55,15,3,29,0.00
2013-11-19,33.8,26.3,16.4,25.5,20.0,13.5,94,77,62,30.40,30.21,3,0,11,0.00
2013-11-20,36.4,32.9,31.2,29.9,27.7,24.7,94,81,67,30.22,30.13,8,0,10,0.00
2013-11-21,33.9,31.7,25.9,32.4,29.8,22.8,100,93,88,30.42,30.14,8,1,11,0.00
2013-11-22,27.7,23.3,15.1,23.0,16.8,6.5,90,76,58,30.54,30.42,10,1,17,0.00
2013-11-23,15.1,9.0,1.7,7.9,2.2,-3.3,86,73,60,30.78,30.51,11,1,17,0.00
2013-11-24,21.3,9.5,-4.3,12.5,2.0,-8.6,85,72,59,30.76,30.11,7,1,14,0.00
2013-11-25,32.3,28.0,21.5,26.7,22.0,12.4,84,78,69,30.11,29.93,11,2,20,0.00
2013-11-26,29.1,16.3,4.5,23.7,9.5,0.7,85,74,62,30.32,29.99,10,1,19,0.00
2013-11-27,22.0,14.1,4.6,14.5,8.5,0.7,89,79,62,30.39,30.26,5,0,9,0.00
2013-11-28,22.4,16.4,7.6,15.9,12.2,4.3,89,83,71,30.57,30.22,4,0,6,0.00
2013-11-29,23.6,18.9,8.1,18.4,14.8,4.8,90,84,73,30.67,30.36,4,0,9,0.00
2013-11-30,34.4,28.4,23.6,26.8,23.1,18.1,87,80,72,30.36,30.09,5,0,7,0.00